sensor_id;sensor_type;location;lat;lon;timestamp;P1;durP1;ratioP1;P2;durP2;ratioP2
75847;SDS011;65750;47.540;19.090;2022-12-18T00:02:22;39.95;;;13.90;;
75847;SDS011;65750;47.540;19.090;2022-12-18T00:04:51;42.72;;;14.25;;
75847;SDS011;65750;47.540;19.090;2022-12-18T00:07:18;39.45;;;14.13;;
75847;SDS011;65750;47.540;19.090;2022-12-18T00:09:45;39.20;;;13.38;;
75847;SDS011;65750;47.540;19.090;2022-12-18T00:12:12;38.22;;;13.62;;
75847;SDS011;65750;47.540;19.090;2022-12-18T00:14:39;37.40;;;13.30;;
75847;SDS011;65750;47.540;19.090;2022-12-18T00:17:07;39.75;;;13.25;;
75847;SDS011;65750;47.540;19.090;2022-12-18T00:19:34;38.85;;;13.62;;
75847;SDS011;65750;47.540;19.090;2022-12-18T00:22:02;41.60;;;12.68;;
75847;SDS011;65750;47.540;19.090;2022-12-18T00:24:30;43.28;;;13.95;;
75847;SDS011;65750;47.540;19.090;2022-12-18T00:26:57;44.58;;;13.80;;
75847;SDS011;65750;47.540;19.090;2022-12-18T00:29:24;34.42;;;12.65;;
75847;SDS011;65750;47.540;19.090;2022-12-18T00:31:51;38.33;;;13.32;;
75847;SDS011;65750;47.540;19.090;2022-12-18T00:34:19;39.65;;;12.93;;
75847;SDS011;65750;47.540;19.090;2022-12-18T00:36:46;40.70;;;13.98;;
75847;SDS011;65750;47.540;19.090;2022-12-18T00:39:15;40.88;;;14.43;;
75847;SDS011;65750;47.540;19.090;2022-12-18T00:41:43;37.47;;;12.98;;
75847;SDS011;65750;47.540;19.090;2022-12-18T00:44:28;39.35;;;13.35;;
75847;SDS011;65750;47.540;19.090;2022-12-18T00:46:55;38.78;;;13.85;;
75847;SDS011;65750;47.540;19.090;2022-12-18T00:49:22;36.65;;;13.13;;
75847;SDS011;65750;47.540;19.090;2022-12-18T00:51:50;38.05;;;12.57;;
75847;SDS011;65750;47.540;19.090;2022-12-18T00:54:19;42.10;;;14.15;;
75847;SDS011;65750;47.540;19.090;2022-12-18T00:56:45;37.45;;;13.73;;
75847;SDS011;65750;47.540;19.090;2022-12-18T00:59:12;42.28;;;13.68;;
75847;SDS011;65750;47.540;19.090;2022-12-18T01:01:40;43.97;;;13.82;;
75847;SDS011;65750;47.540;19.090;2022-12-18T01:04:07;39.30;;;13.37;;
75847;SDS011;65750;47.540;19.090;2022-12-18T01:06:36;38.30;;;12.98;;
75847;SDS011;65750;47.540;19.090;2022-12-18T01:09:03;38.97;;;13.57;;
75847;SDS011;65750;47.540;19.090;2022-12-18T01:11:32;36.45;;;13.75;;
75847;SDS011;65750;47.540;19.090;2022-12-18T01:13:59;35.05;;;12.82;;
75847;SDS011;65750;47.540;19.090;2022-12-18T01:16:26;36.47;;;12.90;;
75847;SDS011;65750;47.540;19.090;2022-12-18T01:18:53;37.90;;;12.07;;
75847;SDS011;65750;47.540;19.090;2022-12-18T01:21:21;40.75;;;12.90;;
75847;SDS011;65750;47.540;19.090;2022-12-18T01:23:51;38.97;;;12.70;;
75847;SDS011;65750;47.540;19.090;2022-12-18T01:26:18;41.78;;;13.32;;
75847;SDS011;65750;47.540;19.090;2022-12-18T01:28:47;42.88;;;13.02;;
75847;SDS011;65750;47.540;19.090;2022-12-18T01:31:16;37.63;;;13.35;;
75847;SDS011;65750;47.540;19.090;2022-12-18T01:33:45;41.13;;;13.68;;
75847;SDS011;65750;47.540;19.090;2022-12-18T01:36:15;42.40;;;14.23;;
75847;SDS011;65750;47.540;19.090;2022-12-18T01:38:43;38.65;;;13.00;;
75847;SDS011;65750;47.540;19.090;2022-12-18T01:41:11;40.40;;;14.33;;
75847;SDS011;65750;47.540;19.090;2022-12-18T01:43:42;41.22;;;13.10;;
75847;SDS011;65750;47.540;19.090;2022-12-18T01:46:21;39.30;;;13.40;;
75847;SDS011;65750;47.540;19.090;2022-12-18T01:48:55;41.45;;;14.18;;
75847;SDS011;65750;47.540;19.090;2022-12-18T01:51:25;41.95;;;13.10;;
75847;SDS011;65750;47.540;19.090;2022-12-18T01:53:53;44.75;;;14.40;;
75847;SDS011;65750;47.540;19.090;2022-12-18T01:56:20;34.97;;;12.90;;
75847;SDS011;65750;47.540;19.090;2022-12-18T01:58:50;39.33;;;13.98;;
75847;SDS011;65750;47.540;19.090;2022-12-18T02:01:22;39.97;;;13.85;;
75847;SDS011;65750;47.540;19.090;2022-12-18T02:03:50;38.85;;;13.13;;
75847;SDS011;65750;47.540;19.090;2022-12-18T02:06:19;42.50;;;13.13;;
75847;SDS011;65750;47.540;19.090;2022-12-18T02:08:57;39.85;;;14.18;;
75847;SDS011;65750;47.540;19.090;2022-12-18T02:11:32;38.55;;;13.98;;
75847;SDS011;65750;47.540;19.090;2022-12-18T02:14:10;42.35;;;13.98;;
75847;SDS011;65750;47.540;19.090;2022-12-18T02:16:44;45.30;;;14.73;;
75847;SDS011;65750;47.540;19.090;2022-12-18T02:19:18;42.95;;;14.23;;
75847;SDS011;65750;47.540;19.090;2022-12-18T02:21:56;41.47;;;13.85;;
75847;SDS011;65750;47.540;19.090;2022-12-18T02:24:28;41.90;;;13.65;;
75847;SDS011;65750;47.540;19.090;2022-12-18T02:27:00;42.42;;;14.90;;
75847;SDS011;65750;47.540;19.090;2022-12-18T02:29:30;43.20;;;13.30;;
75847;SDS011;65750;47.540;19.090;2022-12-18T02:32:01;41.60;;;14.13;;
75847;SDS011;65750;47.540;19.090;2022-12-18T02:34:31;39.65;;;13.95;;
75847;SDS011;65750;47.540;19.090;2022-12-18T02:37:02;40.42;;;14.55;;
75847;SDS011;65750;47.540;19.090;2022-12-18T02:39:32;41.25;;;14.55;;
75847;SDS011;65750;47.540;19.090;2022-12-18T02:42:03;49.92;;;14.43;;
75847;SDS011;65750;47.540;19.090;2022-12-18T02:44:33;42.63;;;14.37;;
75847;SDS011;65750;47.540;19.090;2022-12-18T02:47:01;41.78;;;15.15;;
75847;SDS011;65750;47.540;19.090;2022-12-18T02:49:31;40.53;;;13.75;;
75847;SDS011;65750;47.540;19.090;2022-12-18T02:52:05;36.22;;;12.35;;
75847;SDS011;65750;47.540;19.090;2022-12-18T02:54:48;38.08;;;13.75;;
75847;SDS011;65750;47.540;19.090;2022-12-18T02:57:28;39.07;;;13.90;;
75847;SDS011;65750;47.540;19.090;2022-12-18T03:00:02;39.05;;;14.48;;
75847;SDS011;65750;47.540;19.090;2022-12-18T03:02:33;42.58;;;14.77;;
75847;SDS011;65750;47.540;19.090;2022-12-18T03:05:04;41.58;;;14.02;;
75847;SDS011;65750;47.540;19.090;2022-12-18T03:07:38;42.47;;;14.57;;
75847;SDS011;65750;47.540;19.090;2022-12-18T03:10:11;44.28;;;14.90;;
75847;SDS011;65750;47.540;19.090;2022-12-18T03:12:44;49.22;;;16.45;;
75847;SDS011;65750;47.540;19.090;2022-12-18T03:15:14;44.60;;;14.98;;
75847;SDS011;65750;47.540;19.090;2022-12-18T03:17:49;36.95;;;12.73;;
75847;SDS011;65750;47.540;19.090;2022-12-18T03:20:19;42.62;;;14.57;;
75847;SDS011;65750;47.540;19.090;2022-12-18T03:22:49;44.63;;;14.27;;
75847;SDS011;65750;47.540;19.090;2022-12-18T03:25:17;38.75;;;13.48;;
75847;SDS011;65750;47.540;19.090;2022-12-18T03:27:47;43.85;;;15.13;;
75847;SDS011;65750;47.540;19.090;2022-12-18T03:30:16;38.88;;;13.35;;
75847;SDS011;65750;47.540;19.090;2022-12-18T03:32:46;40.80;;;15.00;;
75847;SDS011;65750;47.540;19.090;2022-12-18T03:35:16;41.17;;;14.43;;
75847;SDS011;65750;47.540;19.090;2022-12-18T03:37:48;41.80;;;14.98;;
75847;SDS011;65750;47.540;19.090;2022-12-18T03:40:20;42.90;;;15.13;;
75847;SDS011;65750;47.540;19.090;2022-12-18T03:42:56;40.15;;;14.27;;
75847;SDS011;65750;47.540;19.090;2022-12-18T03:45:27;41.45;;;14.77;;
75847;SDS011;65750;47.540;19.090;2022-12-18T03:48:00;40.60;;;14.20;;
75847;SDS011;65750;47.540;19.090;2022-12-18T03:50:31;40.78;;;14.55;;
75847;SDS011;65750;47.540;19.090;2022-12-18T03:53:07;44.30;;;16.00;;
75847;SDS011;65750;47.540;19.090;2022-12-18T03:55:38;38.78;;;13.45;;
75847;SDS011;65750;47.540;19.090;2022-12-18T03:58:08;44.45;;;15.18;;
75847;SDS011;65750;47.540;19.090;2022-12-18T04:00:38;45.33;;;14.87;;
75847;SDS011;65750;47.540;19.090;2022-12-18T04:03:06;42.58;;;14.65;;
75847;SDS011;65750;47.540;19.090;2022-12-18T04:05:34;44.30;;;14.27;;
75847;SDS011;65750;47.540;19.090;2022-12-18T04:08:03;43.65;;;14.43;;
75847;SDS011;65750;47.540;19.090;2022-12-18T04:10:32;38.83;;;14.13;;
75847;SDS011;65750;47.540;19.090;2022-12-18T04:13:00;42.70;;;14.05;;
75847;SDS011;65750;47.540;19.090;2022-12-18T04:15:28;43.55;;;14.50;;
75847;SDS011;65750;47.540;19.090;2022-12-18T04:17:56;41.20;;;13.82;;
75847;SDS011;65750;47.540;19.090;2022-12-18T04:20:24;40.63;;;14.32;;
75847;SDS011;65750;47.540;19.090;2022-12-18T04:22:52;42.58;;;15.15;;
75847;SDS011;65750;47.540;19.090;2022-12-18T04:25:19;41.87;;;14.90;;
75847;SDS011;65750;47.540;19.090;2022-12-18T04:27:48;39.90;;;13.62;;
75847;SDS011;65750;47.540;19.090;2022-12-18T04:30:15;43.33;;;13.95;;
75847;SDS011;65750;47.540;19.090;2022-12-18T04:32:45;38.75;;;13.02;;
75847;SDS011;65750;47.540;19.090;2022-12-18T04:35:12;37.92;;;13.45;;
75847;SDS011;65750;47.540;19.090;2022-12-18T04:37:40;41.17;;;13.90;;
75847;SDS011;65750;47.540;19.090;2022-12-18T04:40:08;39.35;;;13.65;;
75847;SDS011;65750;47.540;19.090;2022-12-18T04:42:36;40.97;;;13.80;;
75847;SDS011;65750;47.540;19.090;2022-12-18T04:45:03;45.88;;;13.55;;
75847;SDS011;65750;47.540;19.090;2022-12-18T04:47:31;37.47;;;12.95;;
75847;SDS011;65750;47.540;19.090;2022-12-18T04:49:59;40.15;;;13.30;;
75847;SDS011;65750;47.540;19.090;2022-12-18T04:52:26;40.33;;;13.98;;
75847;SDS011;65750;47.540;19.090;2022-12-18T04:54:54;41.55;;;13.88;;
75847;SDS011;65750;47.540;19.090;2022-12-18T04:57:20;38.75;;;13.65;;
75847;SDS011;65750;47.540;19.090;2022-12-18T04:59:47;40.17;;;14.02;;
75847;SDS011;65750;47.540;19.090;2022-12-18T05:02:15;39.70;;;13.70;;
75847;SDS011;65750;47.540;19.090;2022-12-18T05:04:42;40.12;;;14.55;;
75847;SDS011;65750;47.540;19.090;2022-12-18T05:07:10;37.85;;;13.48;;
75847;SDS011;65750;47.540;19.090;2022-12-18T05:09:37;39.08;;;13.88;;
75847;SDS011;65750;47.540;19.090;2022-12-18T05:12:05;39.13;;;13.73;;
75847;SDS011;65750;47.540;19.090;2022-12-18T05:14:32;41.27;;;13.87;;
75847;SDS011;65750;47.540;19.090;2022-12-18T05:16:59;41.63;;;14.02;;
75847;SDS011;65750;47.540;19.090;2022-12-18T05:19:26;39.60;;;13.70;;
75847;SDS011;65750;47.540;19.090;2022-12-18T05:21:53;44.17;;;14.48;;
75847;SDS011;65750;47.540;19.090;2022-12-18T05:24:22;43.75;;;16.00;;
75847;SDS011;65750;47.540;19.090;2022-12-18T05:26:49;37.90;;;13.43;;
75847;SDS011;65750;47.540;19.090;2022-12-18T05:29:16;39.67;;;13.50;;
75847;SDS011;65750;47.540;19.090;2022-12-18T05:31:43;43.38;;;15.07;;
75847;SDS011;65750;47.540;19.090;2022-12-18T05:34:10;44.83;;;14.68;;
75847;SDS011;65750;47.540;19.090;2022-12-18T05:36:38;45.60;;;14.52;;
75847;SDS011;65750;47.540;19.090;2022-12-18T05:39:05;45.43;;;14.20;;
75847;SDS011;65750;47.540;19.090;2022-12-18T05:41:33;46.17;;;15.02;;
75847;SDS011;65750;47.540;19.090;2022-12-18T05:44:00;42.80;;;13.10;;
75847;SDS011;65750;47.540;19.090;2022-12-18T05:46:28;39.42;;;13.40;;
75847;SDS011;65750;47.540;19.090;2022-12-18T05:48:55;59.20;;;19.55;;
75847;SDS011;65750;47.540;19.090;2022-12-18T05:51:22;51.37;;;17.00;;
75847;SDS011;65750;47.540;19.090;2022-12-18T05:53:49;43.47;;;14.15;;
75847;SDS011;65750;47.540;19.090;2022-12-18T05:56:17;41.92;;;14.57;;
75847;SDS011;65750;47.540;19.090;2022-12-18T05:58:46;53.20;;;17.25;;
75847;SDS011;65750;47.540;19.090;2022-12-18T06:01:14;44.47;;;14.07;;
75847;SDS011;65750;47.540;19.090;2022-12-18T06:03:44;41.83;;;14.20;;
75847;SDS011;65750;47.540;19.090;2022-12-18T06:06:14;41.92;;;14.85;;
75847;SDS011;65750;47.540;19.090;2022-12-18T06:08:42;39.83;;;14.50;;
75847;SDS011;65750;47.540;19.090;2022-12-18T06:11:09;42.95;;;14.52;;
75847;SDS011;65750;47.540;19.090;2022-12-18T06:13:36;40.28;;;13.55;;
75847;SDS011;65750;47.540;19.090;2022-12-18T06:16:05;43.43;;;14.60;;
75847;SDS011;65750;47.540;19.090;2022-12-18T06:18:32;44.55;;;14.63;;
75847;SDS011;65750;47.540;19.090;2022-12-18T06:20:59;46.00;;;14.80;;
75847;SDS011;65750;47.540;19.090;2022-12-18T06:23:27;44.85;;;14.85;;
75847;SDS011;65750;47.540;19.090;2022-12-18T06:25:54;41.25;;;14.00;;
75847;SDS011;65750;47.540;19.090;2022-12-18T06:28:21;41.13;;;14.25;;
75847;SDS011;65750;47.540;19.090;2022-12-18T06:30:49;41.15;;;13.77;;
75847;SDS011;65750;47.540;19.090;2022-12-18T06:33:17;45.25;;;14.30;;
75847;SDS011;65750;47.540;19.090;2022-12-18T06:35:44;43.08;;;15.32;;
75847;SDS011;65750;47.540;19.090;2022-12-18T06:38:11;45.17;;;14.23;;
75847;SDS011;65750;47.540;19.090;2022-12-18T06:40:39;41.17;;;13.73;;
75847;SDS011;65750;47.540;19.090;2022-12-18T06:43:06;42.80;;;13.45;;
75847;SDS011;65750;47.540;19.090;2022-12-18T06:45:33;38.70;;;13.52;;
75847;SDS011;65750;47.540;19.090;2022-12-18T06:48:00;43.72;;;13.00;;
75847;SDS011;65750;47.540;19.090;2022-12-18T06:50:29;44.58;;;14.20;;
75847;SDS011;65750;47.540;19.090;2022-12-18T06:52:56;43.20;;;13.40;;
75847;SDS011;65750;47.540;19.090;2022-12-18T06:55:23;42.42;;;13.52;;
75847;SDS011;65750;47.540;19.090;2022-12-18T06:57:50;39.00;;;13.13;;
75847;SDS011;65750;47.540;19.090;2022-12-18T07:00:17;40.65;;;13.77;;
75847;SDS011;65750;47.540;19.090;2022-12-18T07:02:45;42.90;;;13.55;;
75847;SDS011;65750;47.540;19.090;2022-12-18T07:05:12;40.10;;;12.97;;
75847;SDS011;65750;47.540;19.090;2022-12-18T07:07:40;43.65;;;14.35;;
75847;SDS011;65750;47.540;19.090;2022-12-18T07:10:08;46.08;;;15.60;;
75847;SDS011;65750;47.540;19.090;2022-12-18T07:12:35;48.75;;;16.95;;
75847;SDS011;65750;47.540;19.090;2022-12-18T07:15:03;49.30;;;17.50;;
75847;SDS011;65750;47.540;19.090;2022-12-18T07:17:31;47.73;;;17.43;;
75847;SDS011;65750;47.540;19.090;2022-12-18T07:19:58;47.05;;;16.23;;
75847;SDS011;65750;47.540;19.090;2022-12-18T07:22:25;44.63;;;15.18;;
75847;SDS011;65750;47.540;19.090;2022-12-18T07:24:54;45.30;;;15.05;;
75847;SDS011;65750;47.540;19.090;2022-12-18T07:27:21;44.65;;;14.98;;
75847;SDS011;65750;47.540;19.090;2022-12-18T07:29:49;46.07;;;15.10;;
75847;SDS011;65750;47.540;19.090;2022-12-18T07:32:16;42.65;;;14.23;;
75847;SDS011;65750;47.540;19.090;2022-12-18T07:34:43;44.92;;;15.35;;
75847;SDS011;65750;47.540;19.090;2022-12-18T07:37:10;39.15;;;14.48;;
75847;SDS011;65750;47.540;19.090;2022-12-18T07:39:37;41.20;;;13.88;;
75847;SDS011;65750;47.540;19.090;2022-12-18T07:42:06;38.90;;;12.90;;
75847;SDS011;65750;47.540;19.090;2022-12-18T07:44:51;42.92;;;13.95;;
75847;SDS011;65750;47.540;19.090;2022-12-18T07:47:18;47.72;;;14.90;;
75847;SDS011;65750;47.540;19.090;2022-12-18T07:49:45;43.63;;;13.88;;
75847;SDS011;65750;47.540;19.090;2022-12-18T07:52:13;42.95;;;13.93;;
75847;SDS011;65750;47.540;19.090;2022-12-18T07:54:39;40.00;;;13.70;;
75847;SDS011;65750;47.540;19.090;2022-12-18T07:57:08;44.72;;;13.77;;
75847;SDS011;65750;47.540;19.090;2022-12-18T07:59:36;41.72;;;13.40;;
75847;SDS011;65750;47.540;19.090;2022-12-18T08:02:03;41.70;;;13.80;;
75847;SDS011;65750;47.540;19.090;2022-12-18T08:04:30;40.92;;;13.95;;
75847;SDS011;65750;47.540;19.090;2022-12-18T08:06:59;39.42;;;14.98;;
75847;SDS011;65750;47.540;19.090;2022-12-18T08:09:26;50.30;;;18.92;;
75847;SDS011;65750;47.540;19.090;2022-12-18T08:11:54;39.00;;;14.38;;
75847;SDS011;65750;47.540;19.090;2022-12-18T08:14:22;39.88;;;13.80;;
75847;SDS011;65750;47.540;19.090;2022-12-18T08:16:49;42.50;;;14.70;;
75847;SDS011;65750;47.540;19.090;2022-12-18T08:19:17;36.10;;;13.15;;
75847;SDS011;65750;47.540;19.090;2022-12-18T08:21:44;36.88;;;13.27;;
75847;SDS011;65750;47.540;19.090;2022-12-18T08:24:11;38.45;;;13.95;;
75847;SDS011;65750;47.540;19.090;2022-12-18T08:26:39;38.03;;;15.82;;
75847;SDS011;65750;47.540;19.090;2022-12-18T08:29:05;39.10;;;14.73;;
75847;SDS011;65750;47.540;19.090;2022-12-18T08:31:34;35.35;;;14.60;;
75847;SDS011;65750;47.540;19.090;2022-12-18T08:34:02;35.30;;;14.30;;
75847;SDS011;65750;47.540;19.090;2022-12-18T08:36:29;33.10;;;14.68;;
75847;SDS011;65750;47.540;19.090;2022-12-18T08:38:56;34.70;;;14.50;;
75847;SDS011;65750;47.540;19.090;2022-12-18T08:41:23;35.47;;;15.05;;
75847;SDS011;65750;47.540;19.090;2022-12-18T08:43:50;33.47;;;14.93;;
75847;SDS011;65750;47.540;19.090;2022-12-18T08:46:37;38.77;;;14.70;;
75847;SDS011;65750;47.540;19.090;2022-12-18T08:49:05;39.17;;;16.37;;
75847;SDS011;65750;47.540;19.090;2022-12-18T08:51:33;38.80;;;15.68;;
75847;SDS011;65750;47.540;19.090;2022-12-18T08:54:01;36.00;;;15.48;;
75847;SDS011;65750;47.540;19.090;2022-12-18T08:56:29;38.22;;;15.90;;
75847;SDS011;65750;47.540;19.090;2022-12-18T08:58:56;38.67;;;16.27;;
75847;SDS011;65750;47.540;19.090;2022-12-18T09:01:24;37.38;;;15.68;;
75847;SDS011;65750;47.540;19.090;2022-12-18T09:03:52;37.33;;;16.60;;
75847;SDS011;65750;47.540;19.090;2022-12-18T09:06:20;38.33;;;16.50;;
75847;SDS011;65750;47.540;19.090;2022-12-18T09:08:48;36.95;;;16.48;;
75847;SDS011;65750;47.540;19.090;2022-12-18T09:11:19;37.63;;;16.77;;
75847;SDS011;65750;47.540;19.090;2022-12-18T09:13:47;37.60;;;15.75;;
75847;SDS011;65750;47.540;19.090;2022-12-18T09:16:14;40.55;;;17.77;;
75847;SDS011;65750;47.540;19.090;2022-12-18T09:18:41;52.22;;;23.50;;
75847;SDS011;65750;47.540;19.090;2022-12-18T09:21:11;46.08;;;20.52;;
75847;SDS011;65750;47.540;19.090;2022-12-18T09:23:38;42.90;;;18.07;;
75847;SDS011;65750;47.540;19.090;2022-12-18T09:26:05;40.90;;;17.33;;
75847;SDS011;65750;47.540;19.090;2022-12-18T09:28:33;42.60;;;17.52;;
75847;SDS011;65750;47.540;19.090;2022-12-18T09:31:03;42.35;;;18.17;;
75847;SDS011;65750;47.540;19.090;2022-12-18T09:33:30;34.33;;;16.33;;
75847;SDS011;65750;47.540;19.090;2022-12-18T09:35:57;40.47;;;17.37;;
75847;SDS011;65750;47.540;19.090;2022-12-18T09:38:29;37.70;;;17.15;;
75847;SDS011;65750;47.540;19.090;2022-12-18T09:40:57;40.12;;;16.85;;
75847;SDS011;65750;47.540;19.090;2022-12-18T09:43:28;41.22;;;17.62;;
75847;SDS011;65750;47.540;19.090;2022-12-18T09:46:01;34.70;;;15.60;;
75847;SDS011;65750;47.540;19.090;2022-12-18T09:48:32;39.03;;;16.83;;
75847;SDS011;65750;47.540;19.090;2022-12-18T09:51:02;39.95;;;17.48;;
75847;SDS011;65750;47.540;19.090;2022-12-18T09:53:34;39.97;;;16.25;;
75847;SDS011;65750;47.540;19.090;2022-12-18T09:56:03;39.92;;;16.33;;
75847;SDS011;65750;47.540;19.090;2022-12-18T09:58:31;40.58;;;16.55;;
75847;SDS011;65750;47.540;19.090;2022-12-18T10:01:06;41.03;;;16.20;;
75847;SDS011;65750;47.540;19.090;2022-12-18T10:03:36;42.83;;;15.48;;
75847;SDS011;65750;47.540;19.090;2022-12-18T10:06:05;38.22;;;15.32;;
75847;SDS011;65750;47.540;19.090;2022-12-18T10:08:37;42.22;;;16.00;;
75847;SDS011;65750;47.540;19.090;2022-12-18T10:11:16;40.65;;;15.57;;
75847;SDS011;65750;47.540;19.090;2022-12-18T10:13:49;35.50;;;14.50;;
75847;SDS011;65750;47.540;19.090;2022-12-18T10:16:21;39.70;;;15.98;;
75847;SDS011;65750;47.540;19.090;2022-12-18T10:18:56;38.72;;;15.30;;
75847;SDS011;65750;47.540;19.090;2022-12-18T10:21:30;37.25;;;14.20;;
75847;SDS011;65750;47.540;19.090;2022-12-18T10:24:03;36.90;;;14.30;;
75847;SDS011;65750;47.540;19.090;2022-12-18T10:26:38;36.50;;;14.48;;
75847;SDS011;65750;47.540;19.090;2022-12-18T10:29:07;40.78;;;15.63;;
75847;SDS011;65750;47.540;19.090;2022-12-18T10:31:36;37.85;;;14.90;;
75847;SDS011;65750;47.540;19.090;2022-12-18T10:34:03;40.17;;;15.10;;
75847;SDS011;65750;47.540;19.090;2022-12-18T10:36:30;40.53;;;15.43;;
75847;SDS011;65750;47.540;19.090;2022-12-18T10:39:01;37.13;;;14.32;;
75847;SDS011;65750;47.540;19.090;2022-12-18T10:41:41;39.92;;;14.45;;
75847;SDS011;65750;47.540;19.090;2022-12-18T10:44:14;36.03;;;14.07;;
75847;SDS011;65750;47.540;19.090;2022-12-18T10:46:44;38.17;;;14.63;;
75847;SDS011;65750;47.540;19.090;2022-12-18T10:49:18;38.08;;;14.60;;
75847;SDS011;65750;47.540;19.090;2022-12-18T10:51:48;37.47;;;14.02;;
75847;SDS011;65750;47.540;19.090;2022-12-18T10:54:17;41.13;;;14.55;;
75847;SDS011;65750;47.540;19.090;2022-12-18T10:56:45;39.28;;;15.20;;
75847;SDS011;65750;47.540;19.090;2022-12-18T10:59:13;36.15;;;14.35;;
75847;SDS011;65750;47.540;19.090;2022-12-18T11:01:51;32.53;;;12.50;;
75847;SDS011;65750;47.540;19.090;2022-12-18T11:04:21;38.38;;;13.25;;
75847;SDS011;65750;47.540;19.090;2022-12-18T11:06:53;36.13;;;13.65;;
75847;SDS011;65750;47.540;19.090;2022-12-18T11:09:23;35.53;;;13.50;;
75847;SDS011;65750;47.540;19.090;2022-12-18T11:11:52;35.08;;;12.93;;
75847;SDS011;65750;47.540;19.090;2022-12-18T11:14:21;37.60;;;13.85;;
75847;SDS011;65750;47.540;19.090;2022-12-18T11:16:50;37.05;;;13.27;;
75847;SDS011;65750;47.540;19.090;2022-12-18T11:19:28;35.10;;;13.30;;
75847;SDS011;65750;47.540;19.090;2022-12-18T11:21:58;33.67;;;13.07;;
75847;SDS011;65750;47.540;19.090;2022-12-18T11:24:28;37.40;;;12.90;;
75847;SDS011;65750;47.540;19.090;2022-12-18T11:26:57;36.97;;;12.07;;
75847;SDS011;65750;47.540;19.090;2022-12-18T11:29:31;31.05;;;12.82;;
75847;SDS011;65750;47.540;19.090;2022-12-18T11:32:12;31.33;;;12.05;;
75847;SDS011;65750;47.540;19.090;2022-12-18T11:34:50;31.60;;;11.05;;
75847;SDS011;65750;47.540;19.090;2022-12-18T11:37:19;31.85;;;11.80;;
75847;SDS011;65750;47.540;19.090;2022-12-18T11:39:49;29.83;;;11.07;;
75847;SDS011;65750;47.540;19.090;2022-12-18T11:42:20;27.33;;;10.43;;
75847;SDS011;65750;47.540;19.090;2022-12-18T11:44:50;30.67;;;11.82;;
75847;SDS011;65750;47.540;19.090;2022-12-18T11:47:21;29.77;;;10.85;;
75847;SDS011;65750;47.540;19.090;2022-12-18T11:49:52;29.98;;;11.23;;
75847;SDS011;65750;47.540;19.090;2022-12-18T11:52:21;29.85;;;10.88;;
75847;SDS011;65750;47.540;19.090;2022-12-18T11:54:55;30.70;;;11.77;;
75847;SDS011;65750;47.540;19.090;2022-12-18T11:57:30;29.60;;;10.60;;
75847;SDS011;65750;47.540;19.090;2022-12-18T12:00:04;28.50;;;10.55;;
75847;SDS011;65750;47.540;19.090;2022-12-18T12:02:41;33.60;;;11.45;;
75847;SDS011;65750;47.540;19.090;2022-12-18T12:05:32;29.60;;;11.30;;
75847;SDS011;65750;47.540;19.090;2022-12-18T12:08:09;28.27;;;10.93;;
75847;SDS011;65750;47.540;19.090;2022-12-18T12:10:42;31.40;;;11.43;;
75847;SDS011;65750;47.540;19.090;2022-12-18T12:13:23;30.62;;;11.70;;
75847;SDS011;65750;47.540;19.090;2022-12-18T12:16:03;31.30;;;12.00;;
75847;SDS011;65750;47.540;19.090;2022-12-18T12:18:36;29.37;;;10.73;;
75847;SDS011;65750;47.540;19.090;2022-12-18T12:21:12;30.58;;;11.32;;
75847;SDS011;65750;47.540;19.090;2022-12-18T12:23:44;29.20;;;11.35;;
75847;SDS011;65750;47.540;19.090;2022-12-18T12:26:16;33.78;;;11.65;;
75847;SDS011;65750;47.540;19.090;2022-12-18T12:28:52;29.40;;;10.95;;
75847;SDS011;65750;47.540;19.090;2022-12-18T12:31:30;31.42;;;11.85;;
75847;SDS011;65750;47.540;19.090;2022-12-18T12:34:07;29.58;;;10.65;;
75847;SDS011;65750;47.540;19.090;2022-12-18T12:36:40;31.98;;;12.10;;
75847;SDS011;65750;47.540;19.090;2022-12-18T12:39:20;32.95;;;11.88;;
75847;SDS011;65750;47.540;19.090;2022-12-18T12:41:51;32.55;;;11.70;;
75847;SDS011;65750;47.540;19.090;2022-12-18T12:44:38;34.67;;;12.13;;
75847;SDS011;65750;47.540;19.090;2022-12-18T12:47:10;29.58;;;11.98;;
75847;SDS011;65750;47.540;19.090;2022-12-18T12:49:39;34.38;;;13.50;;
75847;SDS011;65750;47.540;19.090;2022-12-18T12:52:14;31.17;;;12.20;;
75847;SDS011;65750;47.540;19.090;2022-12-18T12:54:42;35.40;;;12.95;;
75847;SDS011;65750;47.540;19.090;2022-12-18T12:57:12;33.80;;;12.23;;
75847;SDS011;65750;47.540;19.090;2022-12-18T12:59:46;33.40;;;12.32;;
75847;SDS011;65750;47.540;19.090;2022-12-18T13:02:18;33.58;;;11.82;;
75847;SDS011;65750;47.540;19.090;2022-12-18T13:04:49;30.23;;;11.50;;
75847;SDS011;65750;47.540;19.090;2022-12-18T13:07:20;34.55;;;12.48;;
75847;SDS011;65750;47.540;19.090;2022-12-18T13:12:52;36.88;;;11.32;;
75847;SDS011;65750;47.540;19.090;2022-12-18T13:15:21;33.20;;;12.25;;
75847;SDS011;65750;47.540;19.090;2022-12-18T13:18:02;29.90;;;11.27;;
75847;SDS011;65750;47.540;19.090;2022-12-18T13:20:32;30.27;;;11.52;;
75847;SDS011;65750;47.540;19.090;2022-12-18T13:23:00;30.75;;;11.88;;
75847;SDS011;65750;47.540;19.090;2022-12-18T13:25:31;29.58;;;11.38;;
75847;SDS011;65750;47.540;19.090;2022-12-18T13:28:03;32.85;;;12.27;;
75847;SDS011;65750;47.540;19.090;2022-12-18T13:33:36;32.05;;;11.25;;
75847;SDS011;65750;47.540;19.090;2022-12-18T13:36:09;35.90;;;12.20;;
75847;SDS011;65750;47.540;19.090;2022-12-18T13:38:40;33.25;;;12.32;;
75847;SDS011;65750;47.540;19.090;2022-12-18T13:41:24;30.85;;;11.32;;
75847;SDS011;65750;47.540;19.090;2022-12-18T13:43:55;31.12;;;11.27;;
75847;SDS011;65750;47.540;19.090;2022-12-18T13:46:24;32.38;;;11.45;;
75847;SDS011;65750;47.540;19.090;2022-12-18T13:48:55;34.70;;;11.82;;
75847;SDS011;65750;47.540;19.090;2022-12-18T13:51:24;33.17;;;12.05;;
75847;SDS011;65750;47.540;19.090;2022-12-18T13:53:53;28.85;;;10.38;;
75847;SDS011;65750;47.540;19.090;2022-12-18T13:56:22;36.17;;;12.13;;
75847;SDS011;65750;47.540;19.090;2022-12-18T13:59:09;32.40;;;12.05;;
75847;SDS011;65750;47.540;19.090;2022-12-18T14:01:43;32.97;;;11.77;;
75847;SDS011;65750;47.540;19.090;2022-12-18T14:04:12;28.27;;;11.95;;
75847;SDS011;65750;47.540;19.090;2022-12-18T14:06:45;31.00;;;11.73;;
75847;SDS011;65750;47.540;19.090;2022-12-18T14:09:14;32.20;;;11.98;;
75847;SDS011;65750;47.540;19.090;2022-12-18T14:11:46;34.38;;;12.20;;
75847;SDS011;65750;47.540;19.090;2022-12-18T14:14:15;34.45;;;12.15;;
75847;SDS011;65750;47.540;19.090;2022-12-18T14:16:43;37.13;;;14.05;;
75847;SDS011;65750;47.540;19.090;2022-12-18T14:19:12;37.13;;;13.43;;
75847;SDS011;65750;47.540;19.090;2022-12-18T14:21:44;33.47;;;13.13;;
75847;SDS011;65750;47.540;19.090;2022-12-18T14:24:13;39.10;;;14.60;;
75847;SDS011;65750;47.540;19.090;2022-12-18T14:26:42;38.92;;;16.08;;
75847;SDS011;65750;47.540;19.090;2022-12-18T14:32:06;41.17;;;15.82;;
75847;SDS011;65750;47.540;19.090;2022-12-18T14:34:35;41.92;;;15.05;;